sensor_id;sensor_type;location;lat;lon;timestamp;P1;durP1;ratioP1;P2;durP2;ratioP2
46266;SDS011;31998;48.798;15.066;2022-08-07T00:00:20;1.37;;;1.37;;
46266;SDS011;31998;48.798;15.066;2022-08-07T00:02:46;1.57;;;1.57;;
46266;SDS011;31998;48.798;15.066;2022-08-07T00:05:11;1.73;;;1.73;;
46266;SDS011;31998;48.798;15.066;2022-08-07T00:07:36;2.60;;;1.67;;
46266;SDS011;31998;48.798;15.066;2022-08-07T00:10:02;1.63;;;1.63;;
46266;SDS011;31998;48.798;15.066;2022-08-07T00:12:29;1.80;;;1.37;;
46266;SDS011;31998;48.798;15.066;2022-08-07T00:14:55;2.80;;;2.20;;
46266;SDS011;31998;48.798;15.066;2022-08-07T00:17:21;196.10;;;5.30;;
46266;SDS011;31998;48.798;15.066;2022-08-07T00:19:47;1.00;;;1.00;;
46266;SDS011;31998;48.798;15.066;2022-08-07T00:22:12;3.40;;;1.53;;
46266;SDS011;31998;48.798;15.066;2022-08-07T00:24:38;27.63;;;1.53;;
46266;SDS011;31998;48.798;15.066;2022-08-07T00:27:03;1.30;;;1.30;;
46266;SDS011;31998;48.798;15.066;2022-08-07T00:29:29;5.60;;;1.10;;
46266;SDS011;31998;48.798;15.066;2022-08-07T00:31:54;7.43;;;1.50;;
46266;SDS011;31998;48.798;15.066;2022-08-07T00:34:26;1.77;;;1.53;;
46266;SDS011;31998;48.798;15.066;2022-08-07T00:36:51;4.27;;;1.70;;
46266;SDS011;31998;48.798;15.066;2022-08-07T00:39:17;13.13;;;2.13;;
46266;SDS011;31998;48.798;15.066;2022-08-07T00:41:53;25.00;;;1.27;;
46266;SDS011;31998;48.798;15.066;2022-08-07T00:44:21;6.90;;;1.70;;
46266;SDS011;31998;48.798;15.066;2022-08-07T00:46:48;2.33;;;1.60;;
46266;SDS011;31998;48.798;15.066;2022-08-07T00:49:13;1.00;;;1.00;;
46266;SDS011;31998;48.798;15.066;2022-08-07T00:51:39;1.33;;;1.33;;
46266;SDS011;31998;48.798;15.066;2022-08-07T00:54:05;1.10;;;1.10;;
46266;SDS011;31998;48.798;15.066;2022-08-07T00:56:31;0.70;;;0.70;;
46266;SDS011;31998;48.798;15.066;2022-08-07T00:58:57;4.33;;;0.87;;
46266;SDS011;31998;48.798;15.066;2022-08-07T01:01:23;2.50;;;1.73;;
46266;SDS011;31998;48.798;15.066;2022-08-07T01:03:49;1.87;;;1.87;;
46266;SDS011;31998;48.798;15.066;2022-08-07T01:06:15;18.53;;;2.70;;
46266;SDS011;31998;48.798;15.066;2022-08-07T01:08:42;2.00;;;1.97;;
46266;SDS011;31998;48.798;15.066;2022-08-07T01:11:08;2.10;;;2.03;;
46266;SDS011;31998;48.798;15.066;2022-08-07T01:13:34;3.90;;;1.73;;
46266;SDS011;31998;48.798;15.066;2022-08-07T01:16:01;1.50;;;1.50;;
46266;SDS011;31998;48.798;15.066;2022-08-07T01:18:28;1.30;;;1.30;;
46266;SDS011;31998;48.798;15.066;2022-08-07T01:23:35;5.90;;;1.40;;
46266;SDS011;31998;48.798;15.066;2022-08-07T01:26:01;1.70;;;1.70;;
46266;SDS011;31998;48.798;15.066;2022-08-07T01:28:28;6.43;;;1.20;;
46266;SDS011;31998;48.798;15.066;2022-08-07T01:30:53;1.60;;;1.40;;
46266;SDS011;31998;48.798;15.066;2022-08-07T01:33:20;2.40;;;1.23;;
46266;SDS011;31998;48.798;15.066;2022-08-07T01:35:45;1.00;;;1.00;;
46266;SDS011;31998;48.798;15.066;2022-08-07T01:38:11;1.20;;;1.10;;
46266;SDS011;31998;48.798;15.066;2022-08-07T01:40:37;1.27;;;1.27;;
46266;SDS011;31998;48.798;15.066;2022-08-07T01:43:04;1.13;;;1.13;;
46266;SDS011;31998;48.798;15.066;2022-08-07T01:45:30;1.27;;;1.27;;
46266;SDS011;31998;48.798;15.066;2022-08-07T01:47:57;1.13;;;1.13;;
46266;SDS011;31998;48.798;15.066;2022-08-07T01:50:23;4.20;;;1.50;;
46266;SDS011;31998;48.798;15.066;2022-08-07T01:52:51;2.60;;;1.30;;
46266;SDS011;31998;48.798;15.066;2022-08-07T01:55:23;1.33;;;1.33;;
46266;SDS011;31998;48.798;15.066;2022-08-07T01:57:53;3.33;;;1.10;;
46266;SDS011;31998;48.798;15.066;2022-08-07T02:00:21;1.43;;;1.43;;
46266;SDS011;31998;48.798;15.066;2022-08-07T02:02:53;2.23;;;1.57;;
46266;SDS011;31998;48.798;15.066;2022-08-07T02:05:41;0.93;;;0.93;;
46266;SDS011;31998;48.798;15.066;2022-08-07T02:08:18;28.43;;;2.10;;
46266;SDS011;31998;48.798;15.066;2022-08-07T02:10:47;1.30;;;1.10;;
46266;SDS011;31998;48.798;15.066;2022-08-07T02:13:17;2.20;;;1.10;;
46266;SDS011;31998;48.798;15.066;2022-08-07T02:15:45;1.67;;;1.27;;
46266;SDS011;31998;48.798;15.066;2022-08-07T02:18:13;5.60;;;1.10;;
46266;SDS011;31998;48.798;15.066;2022-08-07T02:20:40;1.70;;;1.60;;
46266;SDS011;31998;48.798;15.066;2022-08-07T02:23:07;0.97;;;0.97;;
46266;SDS011;31998;48.798;15.066;2022-08-07T02:25:35;4.00;;;1.13;;
46266;SDS011;31998;48.798;15.066;2022-08-07T02:28:03;3.63;;;1.47;;
46266;SDS011;31998;48.798;15.066;2022-08-07T02:30:30;1.73;;;1.73;;
46266;SDS011;31998;48.798;15.066;2022-08-07T02:32:58;1.40;;;1.40;;
46266;SDS011;31998;48.798;15.066;2022-08-07T02:35:25;2.97;;;1.60;;
46266;SDS011;31998;48.798;15.066;2022-08-07T02:37:54;2.10;;;1.80;;
46266;SDS011;31998;48.798;15.066;2022-08-07T02:40:21;2.57;;;1.53;;
46266;SDS011;31998;48.798;15.066;2022-08-07T02:42:48;13.67;;;2.17;;
46266;SDS011;31998;48.798;15.066;2022-08-07T02:45:15;1.07;;;1.07;;
46266;SDS011;31998;48.798;15.066;2022-08-07T02:47:42;183.03;;;5.13;;
46266;SDS011;31998;48.798;15.066;2022-08-07T02:50:08;1.30;;;1.30;;
46266;SDS011;31998;48.798;15.066;2022-08-07T02:52:40;135.83;;;5.23;;
46266;SDS011;31998;48.798;15.066;2022-08-07T02:55:18;1.43;;;1.43;;
46266;SDS011;31998;48.798;15.066;2022-08-07T02:57:46;1.90;;;1.90;;
46266;SDS011;31998;48.798;15.066;2022-08-07T03:00:13;2.23;;;2.10;;
46266;SDS011;31998;48.798;15.066;2022-08-07T03:02:40;2.83;;;2.73;;
46266;SDS011;31998;48.798;15.066;2022-08-07T03:05:08;3.37;;;3.27;;
46266;SDS011;31998;48.798;15.066;2022-08-07T03:07:35;2.00;;;2.00;;
46266;SDS011;31998;48.798;15.066;2022-08-07T03:10:02;2.13;;;2.03;;
46266;SDS011;31998;48.798;15.066;2022-08-07T03:12:28;2.20;;;2.10;;
46266;SDS011;31998;48.798;15.066;2022-08-07T03:14:54;2.70;;;2.60;;
46266;SDS011;31998;48.798;15.066;2022-08-07T03:17:21;2.50;;;2.40;;
46266;SDS011;31998;48.798;15.066;2022-08-07T03:19:50;2.10;;;2.00;;
46266;SDS011;31998;48.798;15.066;2022-08-07T03:22:17;1.50;;;1.50;;
46266;SDS011;31998;48.798;15.066;2022-08-07T03:24:46;3.23;;;2.13;;
46266;SDS011;31998;48.798;15.066;2022-08-07T03:27:12;1.97;;;1.87;;
46266;SDS011;31998;48.798;15.066;2022-08-07T03:29:40;2.00;;;2.00;;
46266;SDS011;31998;48.798;15.066;2022-08-07T03:32:11;3.77;;;2.30;;
46266;SDS011;31998;48.798;15.066;2022-08-07T03:34:38;4.40;;;2.47;;
46266;SDS011;31998;48.798;15.066;2022-08-07T03:37:06;2.60;;;2.13;;
46266;SDS011;31998;48.798;15.066;2022-08-07T03:39:34;2.30;;;2.27;;
46266;SDS011;31998;48.798;15.066;2022-08-07T03:42:02;3.00;;;2.90;;
46266;SDS011;31998;48.798;15.066;2022-08-07T03:44:29;2.93;;;2.20;;
46266;SDS011;31998;48.798;15.066;2022-08-07T03:46:57;2.27;;;2.27;;
46266;SDS011;31998;48.798;15.066;2022-08-07T03:49:23;7.97;;;2.10;;
46266;SDS011;31998;48.798;15.066;2022-08-07T03:51:49;1.77;;;1.77;;
46266;SDS011;31998;48.798;15.066;2022-08-07T03:54:16;3.87;;;2.80;;
46266;SDS011;31998;48.798;15.066;2022-08-07T03:56:42;1.73;;;1.73;;
46266;SDS011;31998;48.798;15.066;2022-08-07T03:59:10;3.17;;;2.00;;
46266;SDS011;31998;48.798;15.066;2022-08-07T04:01:39;2.20;;;2.20;;
46266;SDS011;31998;48.798;15.066;2022-08-07T04:04:06;6.33;;;2.67;;
46266;SDS011;31998;48.798;15.066;2022-08-07T04:06:32;1.43;;;1.40;;
46266;SDS011;31998;48.798;15.066;2022-08-07T04:08:58;3.60;;;2.30;;
46266;SDS011;31998;48.798;15.066;2022-08-07T04:11:25;2.27;;;2.17;;
46266;SDS011;31998;48.798;15.066;2022-08-07T04:13:51;6.70;;;1.97;;
46266;SDS011;31998;48.798;15.066;2022-08-07T04:16:17;8.43;;;2.77;;
46266;SDS011;31998;48.798;15.066;2022-08-07T04:18:45;1.80;;;1.70;;
46266;SDS011;31998;48.798;15.066;2022-08-07T04:21:11;4.00;;;2.30;;
46266;SDS011;31998;48.798;15.066;2022-08-07T04:23:36;7.50;;;2.57;;
46266;SDS011;31998;48.798;15.066;2022-08-07T04:26:03;2.53;;;2.43;;
46266;SDS011;31998;48.798;15.066;2022-08-07T04:28:31;2.23;;;2.23;;
46266;SDS011;31998;48.798;15.066;2022-08-07T04:30:56;2.27;;;2.17;;
46266;SDS011;31998;48.798;15.066;2022-08-07T04:33:22;2.93;;;2.80;;
46266;SDS011;31998;48.798;15.066;2022-08-07T04:35:49;3.10;;;2.77;;
46266;SDS011;31998;48.798;15.066;2022-08-07T04:38:15;2.23;;;2.13;;
46266;SDS011;31998;48.798;15.066;2022-08-07T04:40:41;6.47;;;2.30;;
46266;SDS011;31998;48.798;15.066;2022-08-07T04:43:08;2.30;;;2.20;;
46266;SDS011;31998;48.798;15.066;2022-08-07T04:48:15;2.83;;;2.73;;
46266;SDS011;31998;48.798;15.066;2022-08-07T04:50:52;2.50;;;2.50;;
46266;SDS011;31998;48.798;15.066;2022-08-07T04:53:41;2.80;;;2.70;;
46266;SDS011;31998;48.798;15.066;2022-08-07T04:56:15;3.10;;;3.00;;
46266;SDS011;31998;48.798;15.066;2022-08-07T04:58:45;2.50;;;2.50;;
46266;SDS011;31998;48.798;15.066;2022-08-07T05:01:20;2.37;;;2.37;;
46266;SDS011;31998;48.798;15.066;2022-08-07T05:04:05;2.07;;;2.07;;
46266;SDS011;31998;48.798;15.066;2022-08-07T05:06:57;2.73;;;2.63;;
46266;SDS011;31998;48.798;15.066;2022-08-07T05:09:31;3.07;;;2.97;;
46266;SDS011;31998;48.798;15.066;2022-08-07T05:12:16;2.83;;;2.73;;
46266;SDS011;31998;48.798;15.066;2022-08-07T05:14:46;2.80;;;2.70;;
46266;SDS011;31998;48.798;15.066;2022-08-07T05:17:17;3.27;;;3.17;;
46266;SDS011;31998;48.798;15.066;2022-08-07T05:19:46;4.87;;;3.80;;
46266;SDS011;31998;48.798;15.066;2022-08-07T05:22:13;4.27;;;3.97;;
46266;SDS011;31998;48.798;15.066;2022-08-07T05:24:41;3.60;;;3.50;;
46266;SDS011;31998;48.798;15.066;2022-08-07T05:27:11;4.37;;;4.17;;
46266;SDS011;31998;48.798;15.066;2022-08-07T05:29:38;4.80;;;4.40;;
46266;SDS011;31998;48.798;15.066;2022-08-07T05:32:07;4.87;;;4.57;;
46266;SDS011;31998;48.798;15.066;2022-08-07T05:34:35;4.40;;;4.10;;
46266;SDS011;31998;48.798;15.066;2022-08-07T05:37:02;11.73;;;7.90;;
46266;SDS011;31998;48.798;15.066;2022-08-07T05:39:28;13.30;;;8.17;;
46266;SDS011;31998;48.798;15.066;2022-08-07T05:41:54;4.83;;;4.40;;
46266;SDS011;31998;48.798;15.066;2022-08-07T05:44:20;4.50;;;3.80;;
46266;SDS011;31998;48.798;15.066;2022-08-07T05:46:46;4.93;;;4.47;;
46266;SDS011;31998;48.798;15.066;2022-08-07T05:49:13;4.13;;;3.90;;
46266;SDS011;31998;48.798;15.066;2022-08-07T05:51:42;7.13;;;3.93;;
46266;SDS011;31998;48.798;15.066;2022-08-07T05:54:09;3.83;;;3.73;;
46266;SDS011;31998;48.798;15.066;2022-08-07T05:56:36;4.50;;;4.30;;
46266;SDS011;31998;48.798;15.066;2022-08-07T05:59:04;3.60;;;3.50;;
46266;SDS011;31998;48.798;15.066;2022-08-07T06:01:34;4.23;;;4.00;;
46266;SDS011;31998;48.798;15.066;2022-08-07T06:04:00;3.30;;;2.80;;
46266;SDS011;31998;48.798;15.066;2022-08-07T06:06:28;4.77;;;2.90;;
46266;SDS011;31998;48.798;15.066;2022-08-07T06:08:54;2.30;;;2.07;;
46266;SDS011;31998;48.798;15.066;2022-08-07T06:11:20;2.93;;;2.70;;
46266;SDS011;31998;48.798;15.066;2022-08-07T06:13:46;1.73;;;1.63;;
46266;SDS011;31998;48.798;15.066;2022-08-07T06:16:11;3.30;;;2.10;;
46266;SDS011;31998;48.798;15.066;2022-08-07T06:18:38;1.80;;;1.70;;
46266;SDS011;31998;48.798;15.066;2022-08-07T06:21:05;1.57;;;1.47;;
46266;SDS011;31998;48.798;15.066;2022-08-07T06:23:31;1.93;;;1.83;;
46266;SDS011;31998;48.798;15.066;2022-08-07T06:25:57;2.17;;;2.07;;
46266;SDS011;31998;48.798;15.066;2022-08-07T06:28:24;2.10;;;2.00;;
46266;SDS011;31998;48.798;15.066;2022-08-07T06:30:50;1.73;;;1.63;;
46266;SDS011;31998;48.798;15.066;2022-08-07T06:33:16;1.97;;;1.87;;
46266;SDS011;31998;48.798;15.066;2022-08-07T06:35:42;2.70;;;1.93;;
46266;SDS011;31998;48.798;15.066;2022-08-07T06:38:07;1.60;;;1.50;;
46266;SDS011;31998;48.798;15.066;2022-08-07T06:40:34;3.83;;;1.50;;
46266;SDS011;31998;48.798;15.066;2022-08-07T06:43:08;1.73;;;1.63;;
46266;SDS011;31998;48.798;15.066;2022-08-07T06:45:35;1.57;;;1.47;;
46266;SDS011;31998;48.798;15.066;2022-08-07T06:48:01;2.00;;;1.50;;
46266;SDS011;31998;48.798;15.066;2022-08-07T06:50:28;4.60;;;1.50;;
46266;SDS011;31998;48.798;15.066;2022-08-07T06:52:54;1.80;;;1.80;;
46266;SDS011;31998;48.798;15.066;2022-08-07T06:55:28;1.50;;;1.40;;
46266;SDS011;31998;48.798;15.066;2022-08-07T06:57:59;1.87;;;1.20;;
46266;SDS011;31998;48.798;15.066;2022-08-07T07:00:29;1.00;;;1.00;;
46266;SDS011;31998;48.798;15.066;2022-08-07T07:02:59;2.47;;;1.23;;
46266;SDS011;31998;48.798;15.066;2022-08-07T07:05:26;2.00;;;1.23;;
46266;SDS011;31998;48.798;15.066;2022-08-07T07:07:51;1.73;;;1.40;;
46266;SDS011;31998;48.798;15.066;2022-08-07T07:10:24;1.63;;;1.50;;
46266;SDS011;31998;48.798;15.066;2022-08-07T07:12:52;1.83;;;1.30;;
46266;SDS011;31998;48.798;15.066;2022-08-07T07:20:35;1.70;;;1.60;;
46266;SDS011;31998;48.798;15.066;2022-08-07T07:23:06;2.63;;;1.77;;
46266;SDS011;31998;48.798;15.066;2022-08-07T07:25:33;1.50;;;1.40;;
46266;SDS011;31998;48.798;15.066;2022-08-07T07:28:06;1.67;;;1.57;;
46266;SDS011;31998;48.798;15.066;2022-08-07T07:30:39;1.93;;;1.50;;
46266;SDS011;31998;48.798;15.066;2022-08-07T07:33:10;1.90;;;1.80;;
46266;SDS011;31998;48.798;15.066;2022-08-07T07:35:38;1.47;;;1.47;;
46266;SDS011;31998;48.798;15.066;2022-08-07T07:38:06;6.03;;;1.47;;
46266;SDS011;31998;48.798;15.066;2022-08-07T07:40:33;2.83;;;1.60;;
46266;SDS011;31998;48.798;15.066;2022-08-07T07:43:00;1.80;;;1.70;;
46266;SDS011;31998;48.798;15.066;2022-08-07T07:45:29;1.57;;;1.47;;
46266;SDS011;31998;48.798;15.066;2022-08-07T07:47:56;4.50;;;1.87;;
46266;SDS011;31998;48.798;15.066;2022-08-07T07:50:23;2.10;;;2.00;;
46266;SDS011;31998;48.798;15.066;2022-08-07T07:52:51;1.57;;;1.40;;
46266;SDS011;31998;48.798;15.066;2022-08-07T07:55:18;2.00;;;1.83;;
46266;SDS011;31998;48.798;15.066;2022-08-07T07:57:48;3.90;;;1.50;;
46266;SDS011;31998;48.798;15.066;2022-08-07T08:00:15;2.33;;;1.80;;
46266;SDS011;31998;48.798;15.066;2022-08-07T08:02:42;2.40;;;1.37;;
46266;SDS011;31998;48.798;15.066;2022-08-07T08:05:11;1.30;;;1.30;;
46266;SDS011;31998;48.798;15.066;2022-08-07T08:07:40;1.70;;;1.60;;
46266;SDS011;31998;48.798;15.066;2022-08-07T08:10:07;5.70;;;1.70;;
46266;SDS011;31998;48.798;15.066;2022-08-07T08:12:34;1.43;;;1.27;;
46266;SDS011;31998;48.798;15.066;2022-08-07T08:15:00;1.43;;;1.33;;
46266;SDS011;31998;48.798;15.066;2022-08-07T08:17:26;1.77;;;1.17;;
46266;SDS011;31998;48.798;15.066;2022-08-07T08:20:06;2.73;;;0.97;;
46266;SDS011;31998;48.798;15.066;2022-08-07T08:22:33;1.67;;;1.57;;
46266;SDS011;31998;48.798;15.066;2022-08-07T08:25:22;1.90;;;1.40;;
46266;SDS011;31998;48.798;15.066;2022-08-07T08:28:10;2.73;;;0.90;;
46266;SDS011;31998;48.798;15.066;2022-08-07T08:30:49;1.73;;;1.63;;
46266;SDS011;31998;48.798;15.066;2022-08-07T08:33:18;2.70;;;1.30;;
46266;SDS011;31998;48.798;15.066;2022-08-07T08:35:46;1.40;;;1.40;;
46266;SDS011;31998;48.798;15.066;2022-08-07T08:38:13;1.30;;;1.30;;
46266;SDS011;31998;48.798;15.066;2022-08-07T08:40:47;5.13;;;1.57;;
46266;SDS011;31998;48.798;15.066;2022-08-07T08:43:37;2.73;;;1.23;;
46266;SDS011;31998;48.798;15.066;2022-08-07T08:46:11;7.90;;;1.60;;
46266;SDS011;31998;48.798;15.066;2022-08-07T08:48:45;2.00;;;1.90;;
46266;SDS011;31998;48.798;15.066;2022-08-07T08:54:03;1.40;;;1.40;;
46266;SDS011;31998;48.798;15.066;2022-08-07T08:56:43;1.37;;;1.27;;
46266;SDS011;31998;48.798;15.066;2022-08-07T08:59:29;2.20;;;1.43;;
46266;SDS011;31998;48.798;15.066;2022-08-07T09:07:55;1.13;;;1.10;;
46266;SDS011;31998;48.798;15.066;2022-08-07T09:10:36;1.73;;;0.90;;
46266;SDS011;31998;48.798;15.066;2022-08-07T09:16:01;2.60;;;1.10;;
46266;SDS011;31998;48.798;15.066;2022-08-07T09:18:35;1.77;;;1.30;;
46266;SDS011;31998;48.798;15.066;2022-08-07T09:21:58;1.20;;;1.10;;
46266;SDS011;31998;48.798;15.066;2022-08-07T09:27:02;1.23;;;1.23;;
46266;SDS011;31998;48.798;15.066;2022-08-07T09:35:13;1.03;;;0.80;;
46266;SDS011;31998;48.798;15.066;2022-08-07T09:40:46;1.17;;;1.17;;
46266;SDS011;31998;48.798;15.066;2022-08-07T09:43:57;1.87;;;1.30;;
46266;SDS011;31998;48.798;15.066;2022-08-07T09:54:44;1.53;;;1.20;;
46266;SDS011;31998;48.798;15.066;2022-08-07T09:57:18;1.03;;;1.03;;
46266;SDS011;31998;48.798;15.066;2022-08-07T10:00:03;1.43;;;1.30;;
46266;SDS011;31998;48.798;15.066;2022-08-07T10:19:44;1.30;;;1.20;;
46266;SDS011;31998;48.798;15.066;2022-08-07T10:30:31;1.47;;;1.37;;
46266;SDS011;31998;48.798;15.066;2022-08-07T10:36:03;2.87;;;1.00;;
46266;SDS011;31998;48.798;15.066;2022-08-07T10:38:47;0.80;;;0.70;;
46266;SDS011;31998;48.798;15.066;2022-08-07T10:47:05;0.87;;;0.87;;
46266;SDS011;31998;48.798;15.066;2022-08-07T10:49:49;0.90;;;0.90;;
46266;SDS011;31998;48.798;15.066;2022-08-07T10:52:26;3.97;;;0.87;;
46266;SDS011;31998;48.798;15.066;2022-08-07T10:57:50;0.90;;;0.90;;
46266;SDS011;31998;48.798;15.066;2022-08-07T11:00:21;1.00;;;1.00;;
46266;SDS011;31998;48.798;15.066;2022-08-07T11:06:02;0.80;;;0.80;;
46266;SDS011;31998;48.798;15.066;2022-08-07T11:08:45;1.20;;;1.10;;
46266;SDS011;31998;48.798;15.066;2022-08-07T11:11:52;1.00;;;1.00;;
46266;SDS011;31998;48.798;15.066;2022-08-07T11:14:12;1.93;;;1.13;;
46266;SDS011;31998;48.798;15.066;2022-08-07T11:17:02;3.83;;;1.10;;
46266;SDS011;31998;48.798;15.066;2022-08-07T11:19:35;6.43;;;1.10;;
46266;SDS011;31998;48.798;15.066;2022-08-07T11:27:26;1.00;;;1.00;;
46266;SDS011;31998;48.798;15.066;2022-08-07T11:30:16;1.33;;;1.23;;
46266;SDS011;31998;48.798;15.066;2022-08-07T11:32:59;0.97;;;0.80;;
46266;SDS011;31998;48.798;15.066;2022-08-07T11:35:45;0.83;;;0.83;;
46266;SDS011;31998;48.798;15.066;2022-08-07T11:38:29;1.20;;;1.10;;
46266;SDS011;31998;48.798;15.066;2022-08-07T11:41:14;1.47;;;0.77;;
46266;SDS011;31998;48.798;15.066;2022-08-07T11:46:48;0.70;;;0.70;;
46266;SDS011;31998;48.798;15.066;2022-08-07T11:49:46;4.90;;;0.80;;
46266;SDS011;31998;48.798;15.066;2022-08-07T11:57:42;1.13;;;0.93;;
46266;SDS011;31998;48.798;15.066;2022-08-07T12:00:19;0.90;;;0.90;;
46266;SDS011;31998;48.798;15.066;2022-08-07T12:08:36;2.37;;;0.87;;
46266;SDS011;31998;48.798;15.066;2022-08-07T12:11:15;1.33;;;1.13;;
46266;SDS011;31998;48.798;15.066;2022-08-07T12:14:10;0.97;;;0.97;;
46266;SDS011;31998;48.798;15.066;2022-08-07T12:16:47;0.77;;;0.77;;
46266;SDS011;31998;48.798;15.066;2022-08-07T12:22:27;0.70;;;0.70;;
46266;SDS011;31998;48.798;15.066;2022-08-07T12:25:22;1.83;;;0.80;;
46266;SDS011;31998;48.798;15.066;2022-08-07T12:28:14;1.60;;;0.90;;
46266;SDS011;31998;48.798;15.066;2022-08-07T12:30:44;3.60;;;0.80;;
46266;SDS011;31998;48.798;15.066;2022-08-07T12:33:16;0.90;;;0.90;;
46266;SDS011;31998;48.798;15.066;2022-08-07T12:35:46;1.00;;;1.00;;
46266;SDS011;31998;48.798;15.066;2022-08-07T12:38:14;3.13;;;1.03;;
46266;SDS011;31998;48.798;15.066;2022-08-07T12:40:42;0.93;;;0.93;;
46266;SDS011;31998;48.798;15.066;2022-08-07T12:43:10;1.07;;;0.90;;
46266;SDS011;31998;48.798;15.066;2022-08-07T12:45:52;1.17;;;0.50;;
46266;SDS011;31998;48.798;15.066;2022-08-07T12:48:40;2.80;;;0.90;;
46266;SDS011;31998;48.798;15.066;2022-08-07T12:51:16;1.33;;;0.73;;
46266;SDS011;31998;48.798;15.066;2022-08-07T12:53:48;0.70;;;0.70;;
46266;SDS011;31998;48.798;15.066;2022-08-07T12:56:33;0.80;;;0.77;;
46266;SDS011;31998;48.798;15.066;2022-08-07T12:59:03;0.83;;;0.83;;
46266;SDS011;31998;48.798;15.066;2022-08-07T13:04:42;2.20;;;0.67;;
46266;SDS011;31998;48.798;15.066;2022-08-07T13:07:22;1.70;;;0.93;;
46266;SDS011;31998;48.798;15.066;2022-08-07T13:10:20;1.30;;;1.10;;
46266;SDS011;31998;48.798;15.066;2022-08-07T13:20:55;6.30;;;0.93;;
46266;SDS011;31998;48.798;15.066;2022-08-07T13:23:28;0.90;;;0.90;;
46266;SDS011;31998;48.798;15.066;2022-08-07T13:26:04;2.10;;;0.80;;
46266;SDS011;31998;48.798;15.066;2022-08-07T13:28:55;0.70;;;0.60;;
46266;SDS011;31998;48.798;15.066;2022-08-07T13:32:09;0.80;;;0.80;;
46266;SDS011;31998;48.798;15.066;2022-08-07T13:39:48;0.70;;;0.70;;
46266;SDS011;31998;48.798;15.066;2022-08-07T13:42:24;1.10;;;0.93;;
46266;SDS011;31998;48.798;15.066;2022-08-07T13:44:51;5.23;;;0.90;;
46266;SDS011;31998;48.798;15.066;2022-08-07T13:47:18;4.13;;;0.80;;
46266;SDS011;31998;48.798;15.066;2022-08-07T13:49:46;4.53;;;0.60;;
46266;SDS011;31998;48.798;15.066;2022-08-07T13:52:13;0.60;;;0.60;;
46266;SDS011;31998;48.798;15.066;2022-08-07T13:54:40;1.50;;;0.73;;
46266;SDS011;31998;48.798;15.066;2022-08-07T13:57:08;0.83;;;0.60;;
46266;SDS011;31998;48.798;15.066;2022-08-07T13:59:38;0.87;;;0.60;;
46266;SDS011;31998;48.798;15.066;2022-08-07T14:02:09;0.80;;;0.70;;
46266;SDS011;31998;48.798;15.066;2022-08-07T14:07:14;6.40;;;0.80;;
46266;SDS011;31998;48.798;15.066;2022-08-07T14:09:40;0.70;;;0.70;;
46266;SDS011;31998;48.798;15.066;2022-08-07T14:12:08;1.43;;;1.00;;
46266;SDS011;31998;48.798;15.066;2022-08-07T14:15:03;3.43;;;0.83;;
46266;SDS011;31998;48.798;15.066;2022-08-07T14:17:32;0.73;;;0.70;;
46266;SDS011;31998;48.798;15.066;2022-08-07T14:20:05;1.00;;;1.00;;
46266;SDS011;31998;48.798;15.066;2022-08-07T14:22:39;0.70;;;0.70;;
46266;SDS011;31998;48.798;15.066;2022-08-07T14:25:07;1.33;;;0.50;;
46266;SDS011;31998;48.798;15.066;2022-08-07T14:27:37;0.60;;;0.53;;
46266;SDS011;31998;48.798;15.066;2022-08-07T14:30:07;1.60;;;0.70;;
46266;SDS011;31998;48.798;15.066;2022-08-07T14:32:40;0.83;;;0.83;;
46266;SDS011;31998;48.798;15.066;2022-08-07T14:35:10;0.73;;;0.73;;
46266;SDS011;31998;48.798;15.066;2022-08-07T14:37:42;0.67;;;0.67;;
46266;SDS011;31998;48.798;15.066;2022-08-07T14:40:14;0.63;;;0.63;;
46266;SDS011;31998;48.798;15.066;2022-08-07T14:42:41;0.53;;;0.53;;
46266;SDS011;31998;48.798;15.066;2022-08-07T14:45:09;1.17;;;0.87;;
46266;SDS011;31998;48.798;15.066;2022-08-07T14:47:37;0.70;;;0.70;;
46266;SDS011;31998;48.798;15.066;2022-08-07T14:50:06;1.03;;;0.83;;
46266;SDS011;31998;48.798;15.066;2022-08-07T14:52:34;0.80;;;0.80;;
46266;SDS011;31998;48.798;15.066;2022-08-07T14:55:02;0.60;;;0.60;;
46266;SDS011;31998;48.798;15.066;2022-08-07T14:57:30;0.70;;;0.70;;
46266;SDS011;31998;48.798;15.066;2022-08-07T14:59:58;1.47;;;0.60;;
46266;SDS011;31998;48.798;15.066;2022-08-07T15:02:25;1.07;;;0.60;;
46266;SDS011;31998;48.798;15.066;2022-08-07T15:04:51;0.70;;;0.70;;
46266;SDS011;31998;48.798;15.066;2022-08-07T15:07:21;1.63;;;0.67;;
46266;SDS011;31998;48.798;15.066;2022-08-07T15:09:49;5.60;;;0.90;;
46266;SDS011;31998;48.798;15.066;2022-08-07T15:12:20;2.10;;;0.50;;
46266;SDS011;31998;48.798;15.066;2022-08-07T15:14:52;0.93;;;0.80;;
46266;SDS011;31998;48.798;15.066;2022-08-07T15:17:24;0.67;;;0.67;;
46266;SDS011;31998;48.798;15.066;2022-08-07T15:19:57;1.63;;;0.80;;
46266;SDS011;31998;48.798;15.066;2022-08-07T15:22:31;2.83;;;0.73;;
46266;SDS011;31998;48.798;15.066;2022-08-07T15:25:08;1.63;;;1.00;;
46266;SDS011;31998;48.798;15.066;2022-08-07T15:27:38;1.03;;;1.03;;
46266;SDS011;31998;48.798;15.066;2022-08-07T15:30:08;0.93;;;0.80;;
46266;SDS011;31998;48.798;15.066;2022-08-07T15:32:43;0.57;;;0.57;;
46266;SDS011;31998;48.798;15.066;2022-08-07T15:35:13;0.83;;;0.73;;
46266;SDS011;31998;48.798;15.066;2022-08-07T15:37:40;2.73;;;0.70;;
46266;SDS011;31998;48.798;15.066;2022-08-07T15:40:11;0.80;;;0.80;;
46266;SDS011;31998;48.798;15.066;2022-08-07T15:45:12;2.90;;;0.80;;
46266;SDS011;31998;48.798;15.066;2022-08-07T15:47:42;1.67;;;1.00;;
46266;SDS011;31998;48.798;15.066;2022-08-07T15:50:12;1.20;;;1.10;;
46266;SDS011;31998;48.798;15.066;2022-08-07T15:52:41;0.50;;;0.50;;
46266;SDS011;31998;48.798;15.066;2022-08-07T15:55:10;1.20;;;0.80;;
46266;SDS011;31998;48.798;15.066;2022-08-07T15:57:40;0.83;;;0.83;;
46266;SDS011;31998;48.798;15.066;2022-08-07T16:00:11;1.37;;;0.87;;
46266;SDS011;31998;48.798;15.066;2022-08-07T16:02:38;0.70;;;0.70;;
46266;SDS011;31998;48.798;15.066;2022-08-07T16:05:12;1.73;;;0.77;;
46266;SDS011;31998;48.798;15.066;2022-08-07T16:07:42;0.80;;;0.80;;
46266;SDS011;31998;48.798;15.066;2022-08-07T16:15:23;0.50;;;0.50;;
46266;SDS011;31998;48.798;15.066;2022-08-07T16:23:43;1.60;;;0.90;;
46266;SDS011;31998;48.798;15.066;2022-08-07T16:25:47;0.80;;;0.80;;
46266;SDS011;31998;48.798;15.066;2022-08-07T16:28:31;0.90;;;0.90;;
46266;SDS011;31998;48.798;15.066;2022-08-07T16:33:41;1.13;;;1.00;;
46266;SDS011;31998;48.798;15.066;2022-08-07T16:39:11;2.63;;;0.80;;
46266;SDS011;31998;48.798;15.066;2022-08-07T16:44:49;0.90;;;0.90;;
46266;SDS011;31998;48.798;15.066;2022-08-07T16:53:15;1.10;;;1.00;;
46266;SDS011;31998;48.798;15.066;2022-08-07T16:56:10;0.80;;;0.80;;
46266;SDS011;31998;48.798;15.066;2022-08-07T16:59:02;1.20;;;1.20;;
46266;SDS011;31998;48.798;15.066;2022-08-07T17:01:58;2.70;;;0.90;;
46266;SDS011;31998;48.798;15.066;2022-08-07T17:04:36;5.90;;;1.10;;
46266;SDS011;31998;48.798;15.066;2022-08-07T17:07:08;0.90;;;0.73;;
46266;SDS011;31998;48.798;15.066;2022-08-07T17:09:52;1.20;;;1.20;;
46266;SDS011;31998;48.798;15.066;2022-08-07T17:15:28;2.20;;;1.50;;
46266;SDS011;31998;48.798;15.066;2022-08-07T17:20:40;3.40;;;0.80;;
46266;SDS011;31998;48.798;15.066;2022-08-07T17:31:11;1.80;;;1.70;;
46266;SDS011;31998;48.798;15.066;2022-08-07T17:33:44;1.27;;;1.07;;
46266;SDS011;31998;48.798;15.066;2022-08-07T17:36:18;1.10;;;1.10;;
46266;SDS011;31998;48.798;15.066;2022-08-07T17:39:32;2.10;;;1.20;;
46266;SDS011;31998;48.798;15.066;2022-08-07T17:41:45;1.23;;;1.20;;